sensor_id;sensor_type;location;lat;lon;timestamp;pressure;altitude;pressure_sealevel;temperature;humidity
60345;BME280;46188;52.324;8.032;2023-03-15T00:00:18;99799.97;;;1.99;95.85
60345;BME280;46188;52.324;8.032;2023-03-15T00:02:44;99806.16;;;2.02;96.17
60345;BME280;46188;52.324;8.032;2023-03-15T00:05:10;99813.13;;;2.03;96.03
60345;BME280;46188;52.324;8.032;2023-03-15T00:07:37;99819.22;;;2.04;96.68
60345;BME280;46188;52.324;8.032;2023-03-15T00:10:02;99819.22;;;2.04;96.03
60345;BME280;46188;52.324;8.032;2023-03-15T00:12:28;99822.81;;;2.08;96.46
60345;BME280;46188;52.324;8.032;2023-03-15T00:14:53;99829.91;;;2.13;96.72
60345;BME280;46188;52.324;8.032;2023-03-15T00:17:19;99828.22;;;2.14;97.03
60345;BME280;46188;52.324;8.032;2023-03-15T00:19:47;99821.94;;;2.07;97.37
60345;BME280;46188;52.324;8.032;2023-03-15T00:22:12;99828.88;;;2.08;96.52
60345;BME280;46188;52.324;8.032;2023-03-15T00:24:37;99820.91;;;2.03;96.76
60345;BME280;46188;52.324;8.032;2023-03-15T00:27:03;99833.19;;;2.08;97.35
60345;BME280;46188;52.324;8.032;2023-03-15T00:29:30;99838.56;;;2.12;97.86
60345;BME280;46188;52.324;8.032;2023-03-15T00:31:55;99837.53;;;2.07;97.47
60345;BME280;46188;52.324;8.032;2023-03-15T00:34:20;99844.38;;;2.05;98.09
60345;BME280;46188;52.324;8.032;2023-03-15T00:36:49;99847.81;;;2.04;98.43
60345;BME280;46188;52.324;8.032;2023-03-15T00:39:18;99853.00;;;2.04;98.24
60345;BME280;46188;52.324;8.032;2023-03-15T00:41:43;99858.22;;;2.04;99.13
60345;BME280;46188;52.324;8.032;2023-03-15T00:44:10;99851.13;;;2.00;100.00
60345;BME280;46188;52.324;8.032;2023-03-15T00:46:35;99864.06;;;1.98;100.00
60345;BME280;46188;52.324;8.032;2023-03-15T00:49:01;99866.41;;;1.91;100.00
60345;BME280;46188;52.324;8.032;2023-03-15T00:51:26;99872.47;;;1.91;100.00
60345;BME280;46188;52.324;8.032;2023-03-15T00:53:52;99867.22;;;1.90;100.00
60345;BME280;46188;52.324;8.032;2023-03-15T00:56:20;99858.31;;;1.83;100.00
60345;BME280;46188;52.324;8.032;2023-03-15T00:58:46;99859.25;;;1.85;100.00
60345;BME280;46188;52.324;8.032;2023-03-15T01:01:17;99859.44;;;1.90;100.00
60345;BME280;46188;52.324;8.032;2023-03-15T01:03:43;99871.50;;;1.88;100.00
60345;BME280;46188;52.324;8.032;2023-03-15T01:06:14;99875.69;;;1.84;100.00
60345;BME280;46188;52.324;8.032;2023-03-15T01:08:40;99877.13;;;1.76;100.00
60345;BME280;46188;52.324;8.032;2023-03-15T01:11:09;99878.94;;;1.78;100.00
60345;BME280;46188;52.324;8.032;2023-03-15T01:13:34;99884.88;;;1.74;100.00
60345;BME280;46188;52.324;8.032;2023-03-15T01:16:00;99881.22;;;1.69;100.00
60345;BME280;46188;52.324;8.032;2023-03-15T01:18:25;99876.16;;;1.74;100.00
60345;BME280;46188;52.324;8.032;2023-03-15T01:20:50;99887.13;;;1.65;100.00
60345;BME280;46188;52.324;8.032;2023-03-15T01:23:16;99896.63;;;1.64;100.00
60345;BME280;46188;52.324;8.032;2023-03-15T01:25:41;99890.44;;;1.61;100.00
60345;BME280;46188;52.324;8.032;2023-03-15T01:28:06;99887.84;;;1.61;100.00
60345;BME280;46188;52.324;8.032;2023-03-15T01:30:32;99888.03;;;1.67;100.00
60345;BME280;46188;52.324;8.032;2023-03-15T01:32:58;99890.59;;;1.65;100.00
60345;BME280;46188;52.324;8.032;2023-03-15T01:35:23;99891.50;;;1.66;100.00
60345;BME280;46188;52.324;8.032;2023-03-15T01:37:49;99898.44;;;1.67;100.00
60345;BME280;46188;52.324;8.032;2023-03-15T01:40:15;99896.56;;;1.63;100.00
60345;BME280;46188;52.324;8.032;2023-03-15T01:48:34;99904.59;;;1.69;100.00
60345;BME280;46188;52.324;8.032;2023-03-15T01:51:05;99911.63;;;1.72;100.00
60345;BME280;46188;52.324;8.032;2023-03-15T01:53:32;99920.41;;;1.75;100.00
60345;BME280;46188;52.324;8.032;2023-03-15T01:55:58;99920.47;;;1.77;100.00
60345;BME280;46188;52.324;8.032;2023-03-15T01:58:26;99926.56;;;1.77;100.00
60345;BME280;46188;52.324;8.032;2023-03-15T02:00:52;99929.97;;;1.76;100.00
60345;BME280;46188;52.324;8.032;2023-03-15T02:03:23;99934.94;;;1.70;100.00
60345;BME280;46188;52.324;8.032;2023-03-15T02:05:54;99935.91;;;1.72;100.00
60345;BME280;46188;52.324;8.032;2023-03-15T02:08:24;99934.31;;;1.76;100.00
60345;BME280;46188;52.324;8.032;2023-03-15T02:10:53;99936.22;;;1.81;100.00
60345;BME280;46188;52.324;8.032;2023-03-15T02:13:21;99938.94;;;1.84;100.00
60345;BME280;46188;52.324;8.032;2023-03-15T02:15:47;99939.94;;;1.88;100.00
60345;BME280;46188;52.324;8.032;2023-03-15T02:18:14;99942.38;;;1.83;100.00
60345;BME280;46188;52.324;8.032;2023-03-15T02:20:58;99937.06;;;1.80;100.00
60345;BME280;46188;52.324;8.032;2023-03-15T02:23:28;99936.91;;;1.76;100.00
60345;BME280;46188;52.324;8.032;2023-03-15T02:26:16;99941.19;;;1.75;100.00
60345;BME280;46188;52.324;8.032;2023-03-15T02:28:46;99940.38;;;1.76;100.00
60345;BME280;46188;52.324;8.032;2023-03-15T02:31:12;99949.84;;;1.74;100.00
60345;BME280;46188;52.324;8.032;2023-03-15T02:33:44;99960.09;;;1.71;100.00
60345;BME280;46188;52.324;8.032;2023-03-15T02:36:18;99966.13;;;1.70;100.00
60345;BME280;46188;52.324;8.032;2023-03-15T02:38:44;99960.09;;;1.71;100.00
60345;BME280;46188;52.324;8.032;2023-03-15T02:41:11;99963.53;;;1.70;100.00
60345;BME280;46188;52.324;8.032;2023-03-15T02:43:38;99966.00;;;1.67;100.00
60345;BME280;46188;52.324;8.032;2023-03-15T02:46:04;99964.25;;;1.66;100.00
60345;BME280;46188;52.324;8.032;2023-03-15T02:48:33;99968.53;;;1.65;100.00
60345;BME280;46188;52.324;8.032;2023-03-15T02:50:59;99972.16;;;1.69;100.00
60345;BME280;46188;52.324;8.032;2023-03-15T02:53:28;99972.91;;;1.66;100.00
60345;BME280;46188;52.324;8.032;2023-03-15T02:55:53;99979.84;;;1.66;100.00
60345;BME280;46188;52.324;8.032;2023-03-15T02:58:19;99989.63;;;1.73;100.00
60345;BME280;46188;52.324;8.032;2023-03-15T03:00:44;99986.16;;;1.73;100.00
60345;BME280;46188;52.324;8.032;2023-03-15T03:03:09;99995.66;;;1.72;100.00
60345;BME280;46188;52.324;8.032;2023-03-15T03:05:35;99990.28;;;1.68;100.00
60345;BME280;46188;52.324;8.032;2023-03-15T03:08:01;100002.50;;;1.70;100.00
60345;BME280;46188;52.324;8.032;2023-03-15T03:10:27;99999.09;;;1.71;100.00
60345;BME280;46188;52.324;8.032;2023-03-15T03:12:52;100006.81;;;1.70;100.00
60345;BME280;46188;52.324;8.032;2023-03-15T03:15:18;100012.59;;;1.62;100.00
60345;BME280;46188;52.324;8.032;2023-03-15T03:17:43;100016.09;;;1.63;100.00
60345;BME280;46188;52.324;8.032;2023-03-15T03:20:10;100018.75;;;1.64;100.00
60345;BME280;46188;52.324;8.032;2023-03-15T03:22:37;100019.44;;;1.60;100.00
60345;BME280;46188;52.324;8.032;2023-03-15T03:25:03;100029.72;;;1.57;100.00
60345;BME280;46188;52.324;8.032;2023-03-15T03:27:30;100028.81;;;1.57;100.00
60345;BME280;46188;52.324;8.032;2023-03-15T03:29:55;100025.34;;;1.56;100.00
60345;BME280;46188;52.324;8.032;2023-03-15T03:32:20;100035.88;;;1.59;100.00
60345;BME280;46188;52.324;8.032;2023-03-15T03:34:46;100033.06;;;1.55;100.00
60345;BME280;46188;52.324;8.032;2023-03-15T03:37:19;100024.56;;;1.59;100.00
60345;BME280;46188;52.324;8.032;2023-03-15T03:39:45;100036.06;;;1.64;100.00
60345;BME280;46188;52.324;8.032;2023-03-15T03:42:11;100048.25;;;1.66;100.00
60345;BME280;46188;52.324;8.032;2023-03-15T03:44:36;100050.50;;;1.57;100.00
60345;BME280;46188;52.324;8.032;2023-03-15T03:47:01;100054.94;;;1.60;100.00
60345;BME280;46188;52.324;8.032;2023-03-15T03:49:27;100071.53;;;1.63;100.00
60345;BME280;46188;52.324;8.032;2023-03-15T03:51:52;100080.09;;;1.61;100.00
60345;BME280;46188;52.324;8.032;2023-03-15T03:54:17;100080.72;;;1.55;100.00
60345;BME280;46188;52.324;8.032;2023-03-15T03:56:45;100081.91;;;1.63;100.00
60345;BME280;46188;52.324;8.032;2023-03-15T03:59:11;100074.31;;;1.68;100.00
60345;BME280;46188;52.324;8.032;2023-03-15T04:01:36;100070.19;;;1.73;100.00
60345;BME280;46188;52.324;8.032;2023-03-15T04:04:01;100080.69;;;1.76;100.00
60345;BME280;46188;52.324;8.032;2023-03-15T04:06:26;100083.09;;;1.72;100.00
60345;BME280;46188;52.324;8.032;2023-03-15T04:08:52;100083.81;;;1.68;100.00
60345;BME280;46188;52.324;8.032;2023-03-15T04:11:17;100082.22;;;1.71;100.00
60345;BME280;46188;52.324;8.032;2023-03-15T04:13:43;100088.38;;;1.73;100.00
60345;BME280;46188;52.324;8.032;2023-03-15T04:16:09;100097.09;;;1.75;100.00
60345;BME280;46188;52.324;8.032;2023-03-15T04:18:34;100095.97;;;1.69;100.00
60345;BME280;46188;52.324;8.032;2023-03-15T04:21:00;100090.72;;;1.67;100.00
60345;BME280;46188;52.324;8.032;2023-03-15T04:23:25;100102.09;;;1.69;100.00
60345;BME280;46188;52.324;8.032;2023-03-15T04:25:51;100101.09;;;1.67;100.00
60345;BME280;46188;52.324;8.032;2023-03-15T04:28:19;100102.03;;;1.68;100.00
60345;BME280;46188;52.324;8.032;2023-03-15T04:30:46;100107.22;;;1.68;100.00
60345;BME280;46188;52.324;8.032;2023-03-15T04:33:12;100111.56;;;1.69;100.00
60345;BME280;46188;52.324;8.032;2023-03-15T04:35:37;100127.09;;;1.67;100.00
60345;BME280;46188;52.324;8.032;2023-03-15T04:38:04;100120.19;;;1.68;100.00
60345;BME280;46188;52.324;8.032;2023-03-15T04:40:30;100116.63;;;1.65;100.00
60345;BME280;46188;52.324;8.032;2023-03-15T04:43:00;100126.28;;;1.68;100.00
60345;BME280;46188;52.324;8.032;2023-03-15T04:45:26;100117.66;;;1.69;100.00
60345;BME280;46188;52.324;8.032;2023-03-15T04:47:53;100130.41;;;1.63;100.00
60345;BME280;46188;52.324;8.032;2023-03-15T04:50:20;100126.78;;;1.59;100.00
60345;BME280;46188;52.324;8.032;2023-03-15T04:52:46;100136.34;;;1.60;100.00
60345;BME280;46188;52.324;8.032;2023-03-15T04:55:12;100143.31;;;1.61;100.00
60345;BME280;46188;52.324;8.032;2023-03-15T04:57:38;100144.19;;;1.62;100.00
60345;BME280;46188;52.324;8.032;2023-03-15T05:00:04;100145.19;;;1.64;100.00
60345;BME280;46188;52.324;8.032;2023-03-15T05:02:34;100158.16;;;1.64;100.00
60345;BME280;46188;52.324;8.032;2023-03-15T05:05:05;100161.44;;;1.60;100.00
60345;BME280;46188;52.324;8.032;2023-03-15T05:07:32;100155.09;;;1.53;100.00
60345;BME280;46188;52.324;8.032;2023-03-15T05:09:57;100165.50;;;1.53;100.00
60345;BME280;46188;52.324;8.032;2023-03-15T05:12:23;100162.84;;;1.52;100.00
60345;BME280;46188;52.324;8.032;2023-03-15T05:14:48;100165.88;;;1.41;100.00
60345;BME280;46188;52.324;8.032;2023-03-15T05:17:13;100172.59;;;1.36;100.00
60345;BME280;46188;52.324;8.032;2023-03-15T05:19:39;100174.34;;;1.37;100.00
60345;BME280;46188;52.324;8.032;2023-03-15T05:22:05;100183.09;;;1.39;100.00
60345;BME280;46188;52.324;8.032;2023-03-15T05:24:31;100175.25;;;1.38;100.00
60345;BME280;46188;52.324;8.032;2023-03-15T05:26:56;100190.63;;;1.33;100.00
60345;BME280;46188;52.324;8.032;2023-03-15T05:29:21;100188.59;;;1.26;100.00
60345;BME280;46188;52.324;8.032;2023-03-15T05:31:47;100194.59;;;1.25;100.00
60345;BME280;46188;52.324;8.032;2023-03-15T05:34:12;100205.13;;;1.28;100.00
60345;BME280;46188;52.324;8.032;2023-03-15T05:36:38;100212.91;;;1.28;100.00
60345;BME280;46188;52.324;8.032;2023-03-15T05:39:04;100220.56;;;1.25;100.00
60345;BME280;46188;52.324;8.032;2023-03-15T05:41:30;100219.41;;;1.18;100.00
60345;BME280;46188;52.324;8.032;2023-03-15T05:43:55;100220.97;;;1.15;100.00
60345;BME280;46188;52.324;8.032;2023-03-15T05:46:20;100227.47;;;1.24;100.00
60345;BME280;46188;52.324;8.032;2023-03-15T05:48:47;100236.28;;;1.28;100.00
60345;BME280;46188;52.324;8.032;2023-03-15T05:51:12;100239.41;;;1.21;100.00
60345;BME280;46188;52.324;8.032;2023-03-15T05:53:37;100242.91;;;1.21;100.00
60345;BME280;46188;52.324;8.032;2023-03-15T05:56:03;100254.88;;;1.18;100.00
60345;BME280;46188;52.324;8.032;2023-03-15T05:58:28;100254.25;;;1.23;100.00
60345;BME280;46188;52.324;8.032;2023-03-15T06:00:53;100257.47;;;1.18;100.00
60345;BME280;46188;52.324;8.032;2023-03-15T06:03:19;100267.16;;;1.22;100.00
60345;BME280;46188;52.324;8.032;2023-03-15T06:05:44;100275.75;;;1.21;100.00
60345;BME280;46188;52.324;8.032;2023-03-15T06:08:09;100270.63;;;1.22;100.00
60345;BME280;46188;52.324;8.032;2023-03-15T06:10:34;100289.72;;;1.23;100.00
60345;BME280;46188;52.324;8.032;2023-03-15T06:13:00;100291.47;;;1.24;100.00
60345;BME280;46188;52.324;8.032;2023-03-15T06:15:26;100295.94;;;1.26;100.00
60345;BME280;46188;52.324;8.032;2023-03-15T06:17:51;100298.69;;;1.29;100.00
60345;BME280;46188;52.324;8.032;2023-03-15T06:20:17;100303.03;;;1.31;100.00
60345;BME280;46188;52.324;8.032;2023-03-15T06:22:42;100303.78;;;1.28;100.00
60345;BME280;46188;52.324;8.032;2023-03-15T06:25:08;100307.97;;;1.24;100.00
60345;BME280;46188;52.324;8.032;2023-03-15T06:27:33;100319.22;;;1.25;100.00
60345;BME280;46188;52.324;8.032;2023-03-15T06:29:59;100320.88;;;1.23;100.00
60345;BME280;46188;52.324;8.032;2023-03-15T06:32:24;100319.84;;;1.19;100.00
60345;BME280;46188;52.324;8.032;2023-03-15T06:34:50;100326.72;;;1.19;100.00
60345;BME280;46188;52.324;8.032;2023-03-15T06:37:15;100324.06;;;1.17;100.00
60345;BME280;46188;52.324;8.032;2023-03-15T06:39:41;100324.28;;;1.22;100.00
60345;BME280;46188;52.324;8.032;2023-03-15T06:42:06;100333.88;;;1.23;100.00
60345;BME280;46188;52.324;8.032;2023-03-15T06:44:33;100330.50;;;1.25;100.00
60345;BME280;46188;52.324;8.032;2023-03-15T06:46:58;100324.28;;;1.22;100.00
60345;BME280;46188;52.324;8.032;2023-03-15T06:49:23;100329.31;;;1.19;100.00
60345;BME280;46188;52.324;8.032;2023-03-15T06:51:49;100326.81;;;1.20;100.00
60345;BME280;46188;52.324;8.032;2023-03-15T06:54:14;100339.84;;;1.22;100.00
60345;BME280;46188;52.324;8.032;2023-03-15T06:56:39;100340.56;;;1.18;100.00
60345;BME280;46188;52.324;8.032;2023-03-15T06:59:05;100340.63;;;1.19;100.00
60345;BME280;46188;52.324;8.032;2023-03-15T07:01:31;100354.41;;;1.18;100.00
60345;BME280;46188;52.324;8.032;2023-03-15T07:03:56;100349.94;;;1.16;100.00
60345;BME280;46188;52.324;8.032;2023-03-15T07:06:21;100354.41;;;1.18;100.00
60345;BME280;46188;52.324;8.032;2023-03-15T07:08:47;100360.63;;;1.22;100.00
60345;BME280;46188;52.324;8.032;2023-03-15T07:11:12;100361.66;;;1.25;100.00
60345;BME280;46188;52.324;8.032;2023-03-15T07:13:37;100382.34;;;1.24;100.00
60345;BME280;46188;52.324;8.032;2023-03-15T07:16:03;100377.53;;;1.32;100.00
60345;BME280;46188;52.324;8.032;2023-03-15T07:18:28;100379.44;;;1.36;100.00
60345;BME280;46188;52.324;8.032;2023-03-15T07:20:57;100373.50;;;1.38;100.00
60345;BME280;46188;52.324;8.032;2023-03-15T07:23:23;100384.19;;;1.44;100.00
60345;BME280;46188;52.324;8.032;2023-03-15T07:25:48;100377.44;;;1.48;100.00
60345;BME280;46188;52.324;8.032;2023-03-15T07:28:13;100389.28;;;1.61;100.00
60345;BME280;46188;52.324;8.032;2023-03-15T07:30:39;100391.41;;;1.70;100.00
60345;BME280;46188;52.324;8.032;2023-03-15T07:33:04;100397.63;;;1.73;100.00
60345;BME280;46188;52.324;8.032;2023-03-15T07:35:29;100395.97;;;1.75;100.00
60345;BME280;46188;52.324;8.032;2023-03-15T07:37:54;100406.66;;;1.81;100.00
60345;BME280;46188;52.324;8.032;2023-03-15T07:40:20;100409.69;;;1.91;100.00
60345;BME280;46188;52.324;8.032;2023-03-15T07:42:45;100416.91;;;1.98;100.00
60345;BME280;46188;52.324;8.032;2023-03-15T07:45:10;100425.94;;;2.06;100.00
60345;BME280;46188;52.324;8.032;2023-03-15T07:47:36;100430.47;;;2.10;100.00
60345;BME280;46188;52.324;8.032;2023-03-15T07:50:02;100435.78;;;2.13;100.00
60345;BME280;46188;52.324;8.032;2023-03-15T07:52:28;100434.25;;;2.17;100.00
60345;BME280;46188;52.324;8.032;2023-03-15T07:54:53;100441.75;;;2.30;100.00
60345;BME280;46188;52.324;8.032;2023-03-15T07:57:18;100442.22;;;2.41;100.00
60345;BME280;46188;52.324;8.032;2023-03-15T07:59:43;100443.50;;;2.51;100.00
60345;BME280;46188;52.324;8.032;2023-03-15T08:02:12;100450.06;;;2.62;100.00
60345;BME280;46188;52.324;8.032;2023-03-15T08:04:38;100453.03;;;2.71;100.00
60345;BME280;46188;52.324;8.032;2023-03-15T08:07:04;100456.97;;;2.83;100.00
60345;BME280;46188;52.324;8.032;2023-03-15T08:09:29;100450.63;;;2.97;100.00
60345;BME280;46188;52.324;8.032;2023-03-15T08:11:57;100464.94;;;3.07;100.00
60345;BME280;46188;52.324;8.032;2023-03-15T08:14:22;100471.66;;;3.23;100.00
60345;BME280;46188;52.324;8.032;2023-03-15T08:16:49;100461.34;;;3.26;100.00
60345;BME280;46188;52.324;8.032;2023-03-15T08:19:14;100473.22;;;3.40;100.00
60345;BME280;46188;52.324;8.032;2023-03-15T08:21:39;100479.03;;;3.56;100.00
60345;BME280;46188;52.324;8.032;2023-03-15T08:24:09;100482.13;;;3.68;100.00
60345;BME280;46188;52.324;8.032;2023-03-15T08:26:35;100484.69;;;3.89;100.00
60345;BME280;46188;52.324;8.032;2023-03-15T08:29:00;100486.00;;;4.02;100.00
60345;BME280;46188;52.324;8.032;2023-03-15T08:31:25;100491.16;;;4.23;100.00
60345;BME280;46188;52.324;8.032;2023-03-15T08:33:50;100503.53;;;4.29;100.00
60345;BME280;46188;52.324;8.032;2023-03-15T08:36:16;100501.16;;;4.35;100.00
60345;BME280;46188;52.324;8.032;2023-03-15T08:38:41;100505.50;;;4.34;100.00
60345;BME280;46188;52.324;8.032;2023-03-15T08:41:06;100518.03;;;4.44;100.00
60345;BME280;46188;52.324;8.032;2023-03-15T08:43:31;100511.81;;;4.65;100.00
60345;BME280;46188;52.324;8.032;2023-03-15T08:45:57;100522.69;;;4.77;100.00
60345;BME280;46188;52.324;8.032;2023-03-15T08:48:22;100524.06;;;4.92;100.00
60345;BME280;46188;52.324;8.032;2023-03-15T08:50:48;100526.91;;;4.99;100.00
60345;BME280;46188;52.324;8.032;2023-03-15T08:53:13;100522.38;;;5.20;100.00
60345;BME280;46188;52.324;8.032;2023-03-15T08:55:38;100528.75;;;5.28;100.00
60345;BME280;46188;52.324;8.032;2023-03-15T08:58:03;100532.31;;;5.30;100.00
60345;BME280;46188;52.324;8.032;2023-03-15T09:00:30;100535.72;;;5.27;100.00
60345;BME280;46188;52.324;8.032;2023-03-15T09:02:56;100538.97;;;5.20;100.00
60345;BME280;46188;52.324;8.032;2023-03-15T09:05:23;100540.88;;;5.51;100.00
60345;BME280;46188;52.324;8.032;2023-03-15T09:07:48;100531.19;;;5.76;100.00
60345;BME280;46188;52.324;8.032;2023-03-15T09:10:15;100535.25;;;5.95;100.00
60345;BME280;46188;52.324;8.032;2023-03-15T09:12:42;100544.25;;;6.03;100.00
60345;BME280;46188;52.324;8.032;2023-03-15T09:15:09;100550.06;;;5.95;100.00
60345;BME280;46188;52.324;8.032;2023-03-15T09:17:36;100542.28;;;5.69;100.00
60345;BME280;46188;52.324;8.032;2023-03-15T09:20:01;100548.66;;;5.77;100.00
60345;BME280;46188;52.324;8.032;2023-03-15T09:22:28;100545.06;;;6.01;100.00
60345;BME280;46188;52.324;8.032;2023-03-15T09:24:53;100556.19;;;6.22;99.79
60345;BME280;46188;52.324;8.032;2023-03-15T09:27:19;100553.47;;;6.19;96.19
60345;BME280;46188;52.324;8.032;2023-03-15T09:29:44;100551.34;;;6.06;94.58
60345;BME280;46188;52.324;8.032;2023-03-15T09:32:09;100555.41;;;6.26;95.04
60345;BME280;46188;52.324;8.032;2023-03-15T09:34:35;100554.06;;;6.39;94.47
60345;BME280;46188;52.324;8.032;2023-03-15T09:37:01;100552.41;;;6.43;92.76
60345;BME280;46188;52.324;8.032;2023-03-15T09:39:27;100554.97;;;6.72;94.34
60345;BME280;46188;52.324;8.032;2023-03-15T09:41:55;100550.00;;;6.81;91.00
60345;BME280;46188;52.324;8.032;2023-03-15T09:44:33;100558.91;;;6.56;92.23
60345;BME280;46188;52.324;8.032;2023-03-15T09:50:17;100557.03;;;6.82;88.90
60345;BME280;46188;52.324;8.032;2023-03-15T09:52:57;100568.41;;;7.16;88.27
60345;BME280;46188;52.324;8.032;2023-03-15T09:55:26;100563.31;;;7.22;85.78
60345;BME280;46188;52.324;8.032;2023-03-15T09:57:55;100559.75;;;7.53;85.53
60345;BME280;46188;52.324;8.032;2023-03-15T10:02:58;100558.03;;;7.55;82.10
60345;BME280;46188;52.324;8.032;2023-03-15T10:05:50;100557.69;;;7.76;81.13
60345;BME280;46188;52.324;8.032;2023-03-15T10:08:17;100557.88;;;7.86;82.11
60345;BME280;46188;52.324;8.032;2023-03-15T10:10:50;100547.69;;;7.98;81.60
60345;BME280;46188;52.324;8.032;2023-03-15T10:13:28;100553.13;;;8.07;77.84
60345;BME280;46188;52.324;8.032;2023-03-15T10:16:20;100550.88;;;8.24;76.13
60345;BME280;46188;52.324;8.032;2023-03-15T10:21:42;100559.34;;;8.12;72.51
60345;BME280;46188;52.324;8.032;2023-03-15T10:24:21;100552.00;;;8.37;74.47
60345;BME280;46188;52.324;8.032;2023-03-15T10:26:50;100557.56;;;8.49;75.02
60345;BME280;46188;52.324;8.032;2023-03-15T10:29:20;100574.06;;;8.04;74.38
60345;BME280;46188;52.324;8.032;2023-03-15T10:31:48;100563.22;;;8.28;73.29
60345;BME280;46188;52.324;8.032;2023-03-15T10:34:16;100572.66;;;7.82;73.78
60345;BME280;46188;52.324;8.032;2023-03-15T10:36:49;100571.97;;;7.89;73.22
60345;BME280;46188;52.324;8.032;2023-03-15T10:39:18;100572.81;;;8.26;70.10
60345;BME280;46188;52.324;8.032;2023-03-15T10:41:46;100573.25;;;8.46;69.08
60345;BME280;46188;52.324;8.032;2023-03-15T10:44:18;100570.47;;;8.81;69.31
60345;BME280;46188;52.324;8.032;2023-03-15T10:47:12;100579.19;;;8.80;63.58
60345;BME280;46188;52.324;8.032;2023-03-15T10:49:40;100574.44;;;8.61;63.39
60345;BME280;46188;52.324;8.032;2023-03-15T10:52:23;100584.50;;;8.41;65.02
60345;BME280;46188;52.324;8.032;2023-03-15T10:54:50;100582.34;;;8.61;64.17
60345;BME280;46188;52.324;8.032;2023-03-15T10:57:18;100576.38;;;8.30;63.24
60345;BME280;46188;52.324;8.032;2023-03-15T10:59:58;100580.84;;;8.75;63.16
60345;BME280;46188;52.324;8.032;2023-03-15T11:02:25;100582.50;;;9.14;61.57
60345;BME280;46188;52.324;8.032;2023-03-15T11:07:34;100588.19;;;8.92;60.07
60345;BME280;46188;52.324;8.032;2023-03-15T11:10:02;100593.47;;;8.93;58.27
60345;BME280;46188;52.324;8.032;2023-03-15T11:12:32;100587.59;;;9.07;59.67
60345;BME280;46188;52.324;8.032;2023-03-15T11:15:05;100595.56;;;9.11;59.77
60345;BME280;46188;52.324;8.032;2023-03-15T11:17:35;100603.81;;;9.30;58.46
60345;BME280;46188;52.324;8.032;2023-03-15T11:20:29;100601.78;;;9.64;59.28
60345;BME280;46188;52.324;8.032;2023-03-15T11:22:56;100600.50;;;9.93;58.98
60345;BME280;46188;52.324;8.032;2023-03-15T11:25:27;100605.78;;;9.93;57.78
60345;BME280;46188;52.324;8.032;2023-03-15T11:27:55;100611.63;;;9.27;59.02
60345;BME280;46188;52.324;8.032;2023-03-15T11:30:26;100616.56;;;8.64;59.60
60345;BME280;46188;52.324;8.032;2023-03-15T11:32:53;100618.81;;;8.90;59.24
60345;BME280;46188;52.324;8.032;2023-03-15T11:35:27;100619.84;;;8.96;53.16
60345;BME280;46188;52.324;8.032;2023-03-15T11:38:00;100626.50;;;8.80;54.57
60345;BME280;46188;52.324;8.032;2023-03-15T11:40:41;100623.66;;;8.30;55.46
60345;BME280;46188;52.324;8.032;2023-03-15T11:43:19;100622.38;;;8.50;57.78
60345;BME280;46188;52.324;8.032;2023-03-15T11:45:52;100626.34;;;9.15;55.54
60345;BME280;46188;52.324;8.032;2023-03-15T11:48:30;100622.38;;;9.37;55.80
60345;BME280;46188;52.324;8.032;2023-03-15T11:51:00;100624.75;;;9.25;55.41
60345;BME280;46188;52.324;8.032;2023-03-15T11:53:30;100613.84;;;9.02;56.30
60345;BME280;46188;52.324;8.032;2023-03-15T11:56:18;100625.00;;;8.50;56.16
60345;BME280;46188;52.324;8.032;2023-03-15T11:58:43;100624.44;;;8.64;55.09
60345;BME280;46188;52.324;8.032;2023-03-15T12:01:10;100631.16;;;8.92;55.33
60345;BME280;46188;52.324;8.032;2023-03-15T12:03:47;100648.47;;;8.82;54.37
60345;BME280;46188;52.324;8.032;2023-03-15T12:08:47;100649.09;;;7.94;54.37
60345;BME280;46188;52.324;8.032;2023-03-15T12:16:20;100653.56;;;7.30;55.34
60345;BME280;46188;52.324;8.032;2023-03-15T12:18:46;100643.78;;;7.91;54.51
60345;BME280;46188;52.324;8.032;2023-03-15T12:21:14;100640.06;;;8.58;54.01
60345;BME280;46188;52.324;8.032;2023-03-15T12:24:04;100646.28;;;8.23;53.19
60345;BME280;46188;52.324;8.032;2023-03-15T12:26:38;100652.31;;;7.84;52.27
60345;BME280;46188;52.324;8.032;2023-03-15T12:29:11;100654.34;;;7.61;53.44
60345;BME280;46188;52.324;8.032;2023-03-15T12:31:49;100655.91;;;7.53;53.39
60345;BME280;46188;52.324;8.032;2023-03-15T12:34:26;100649.06;;;7.60;52.93
60345;BME280;46188;52.324;8.032;2023-03-15T12:36:56;100654.38;;;7.96;50.86
60345;BME280;46188;52.324;8.032;2023-03-15T12:39:49;100646.66;;;8.40;51.22
60345;BME280;46188;52.324;8.032;2023-03-15T12:48:13;100649.69;;;8.57;49.42
60345;BME280;46188;52.324;8.032;2023-03-15T12:55:39;100641.13;;;9.09;47.14
60345;BME280;46188;52.324;8.032;2023-03-15T12:58:10;100640.56;;;9.27;47.40
60345;BME280;46188;52.324;8.032;2023-03-15T13:00:37;100632.28;;;8.62;46.60
60345;BME280;46188;52.324;8.032;2023-03-15T13:03:15;100630.81;;;8.37;48.45
60345;BME280;46188;52.324;8.032;2023-03-15T13:05:58;100628.91;;;8.30;49.61
60345;BME280;46188;52.324;8.032;2023-03-15T13:08:41;100635.59;;;8.54;49.90
60345;BME280;46188;52.324;8.032;2023-03-15T13:11:19;100627.72;;;8.96;46.69
60345;BME280;46188;52.324;8.032;2023-03-15T13:16:31;100637.59;;;9.08;47.97
60345;BME280;46188;52.324;8.032;2023-03-15T13:19:26;100646.44;;;9.12;48.82
60345;BME280;46188;52.324;8.032;2023-03-15T13:22:17;100642.25;;;9.23;48.11
60345;BME280;46188;52.324;8.032;2023-03-15T13:30:19;100641.75;;;9.42;48.23
60345;BME280;46188;52.324;8.032;2023-03-15T13:33:09;100642.88;;;9.10;48.41
60345;BME280;46188;52.324;8.032;2023-03-15T13:35:43;100645.84;;;8.82;49.48
60345;BME280;46188;52.324;8.032;2023-03-15T13:38:23;100652.66;;;9.15;48.22
60345;BME280;46188;52.324;8.032;2023-03-15T13:40:49;100645.75;;;9.20;48.07
60345;BME280;46188;52.324;8.032;2023-03-15T13:43:14;100650.25;;;9.28;47.00